Anthony, Kansas
Current Conditions -  °F | °C
As of 6:55 PM on Wednesday 17 Dec 2014 (Local Time) from KAVK Reporting Station
Haze Haze  
Wind Chill: 24°   Ceiling: 400
Heat Index: 32°   Visibility: 4mi
Dew Point: 32°   Wind: 10mph
Humidity: 100%   Direction: 100°E
Pressure: 30.13"   Gusts: NA
Location:  37.15°N, 98.03°W
Report Text: KAVK 180055Z AUTO 10009KT 4SM BR OVC004 00/00 A3013 RMK AO2
Loading
Personal Weather Stations






























Interactive Weather Map New forecast layout! Learn more

10-Day Weather Forecast

Advertisements
Track Severe Weather on mobile